Map

Track Data

SID SEASON NUMBER BASIN SUBBASIN NAME ISO_TIME NATURE LAT LON WMO_WIND WMO_PRES WMO_AGENCY TRACK_TYPE DIST2LAND LANDFALL IFLAG USA_AGENCY USA_ATCF_ID USA_LAT USA_LON USA_RECORD USA_STATUS USA_WIND USA_PRES USA_SSHS USA_R34_NE USA_R34_SE USA_R34_SW USA_R34_NW USA_R50_NE USA_R50_SE USA_R50_SW USA_R50_NW USA_R64_NE USA_R64_SE USA_R64_SW USA_R64_NW USA_POCI USA_ROCI USA_RMW USA_EYE TOKYO_LAT TOKYO_LON TOKYO_GRADE TOKYO_WIND TOKYO_PRES TOKYO_R50_DIR TOKYO_R50_LONG TOKYO_R50_SHORT TOKYO_R30_DIR TOKYO_R30_LONG TOKYO_R30_SHORT TOKYO_LAND CMA_LAT CMA_LON CMA_CAT CMA_WIND CMA_PRES HKO_LAT HKO_LON HKO_CAT HKO_WIND HKO_PRES NEWDELHI_LAT NEWDELHI_LON NEWDELHI_GRADE NEWDELHI_WIND NEWDELHI_PRES NEWDELHI_CI NEWDELHI_DP NEWDELHI_POCI REUNION_LAT REUNION_LON REUNION_TYPE REUNION_WIND REUNION_PRES REUNION_TNUM REUNION_CI REUNION_RMW REUNION_R34_NE REUNION_R34_SE REUNION_R34_SW REUNION_R34_NW REUNION_R50_NE REUNION_R50_SE REUNION_R50_SW REUNION_R50_NW REUNION_R64_NE REUNION_R64_SE REUNION_R64_SW REUNION_R64_NW BOM_LAT BOM_LON BOM_TYPE BOM_WIND BOM_PRES BOM_TNUM BOM_CI BOM_RMW BOM_R34_NE BOM_R34_SE BOM_R34_SW BOM_R34_NW BOM_R50_NE BOM_R50_SE BOM_R50_SW BOM_R50_NW BOM_R64_NE BOM_R64_SE BOM_R64_SW BOM_R64_NW BOM_ROCI BOM_POCI BOM_EYE BOM_POS_METHOD BOM_PRES_METHOD NADI_LAT NADI_LON NADI_CAT NADI_WIND NADI_PRES WELLINGTON_LAT WELLINGTON_LON WELLINGTON_WIND WELLINGTON_PRES DS824_LAT DS824_LON DS824_STAGE DS824_WIND DS824_PRES TD9636_LAT TD9636_LON TD9636_STAGE TD9636_WIND TD9636_PRES TD9635_LAT TD9635_LON TD9635_WIND TD9635_PRES TD9635_ROCI NEUMANN_LAT NEUMANN_LON NEUMANN_CLASS NEUMANN_WIND NEUMANN_PRES MLC_LAT MLC_LON MLC_CLASS MLC_WIND MLC_PRES USA_GUST BOM_GUST BOM_GUST_PER REUNION_GUST REUNION_GUST_PER USA_SEAHGT USA_SEARAD_NE USA_SEARAD_SE USA_SEARAD_SW USA_SEARAD_NW STORM_SPEED STORM_DIR
2018311N07179 2018 105 WP MM USAGI 2018-11-07 00:00:00 DS 7.30000 179.000 main 2500 2500 O_____________ jtwc_wp WP332018 7.30000 179.000 WV 15 1006 -3 1006 65 60 6 272
2018311N07179 2018 105 WP MM USAGI 2018-11-07 03:00:00 DS 7.31251 178.710 main 2512 2512 P_____________ WP332018 7.31251 178.710 WV 17 1006 -3 1006 65 45 6 270
2018311N07179 2018 105 WP MM USAGI 2018-11-07 06:00:00 DS 7.30000 178.400 main 2525 2525 O_____________ jtwc_wp WP332018 7.30000 178.400 WV 20 1006 -3 1006 65 30 6 264
2018311N07179 2018 105 WP MM USAGI 2018-11-07 09:00:00 DS 7.25003 178.070 main 2538 2527 P_____________ WP332018 7.25003 178.070 WV 17 1006 -3 1006 65 72 6 260
2018311N07179 2018 105 WP MM USAGI 2018-11-07 12:00:00 DS 7.20000 177.800 main 2541 2541 O_____________ jtwc_wp WP332018 7.20000 177.800 WV 15 1006 -3 1006 65 115 4 262
2018311N07179 2018 105 WP MM USAGI 2018-11-07 15:00:00 DS 7.19246 177.670 main 2545 2545 P_____________ WP332018 7.19246 177.670 WV 17 1005 -3 1006 157 115 2 270
2018311N07179 2018 105 WP MM USAGI 2018-11-07 18:00:00 DS 7.20000 177.600 main 2550 2546 O_____________ jtwc_wp WP332018 7.20000 177.600 WV 20 1005 -3 1006 250 115 1 273
2018311N07179 2018 105 WP MM USAGI 2018-11-07 21:00:00 DS 7.19996 177.530 main 2546 2538 P_____________ WP332018 7.19996 177.530 WV 20 1004 -3 1005 242 115 2 270
2018311N07179 2018 105 WP MM USAGI 2018-11-08 00:00:00 DS 7.20000 177.400 main 2538 2522 O_____________ jtwc_wp WP332018 7.20000 177.400 WV 20 1003 -3 1005 235 115 4 267
2018311N07179 2018 105 WP MM USAGI 2018-11-08 03:00:00 DS 7.17749 177.145 main 2514 2491 P_____________ WP332018 7.17749 177.145 WV 20 1002 -3 1004 235 77 6 270
2018311N07179 2018 105 WP MM USAGI 2018-11-08 06:00:00 DS 7.20000 176.800 main 2491 2475 O_____________ jtwc_wp WP332018 7.20000 176.800 WV 20 1001 -3 1004 235 40 7 283
2018311N07179 2018 105 WP MM USAGI 2018-11-08 09:00:00 DS 7.33491 176.445 main 2467 2453 P_____________ WP332018 7.33491 176.445 WV 20 1001 -3 1004 185 40 9 291
2018311N07179 2018 105 WP MM USAGI 2018-11-08 12:00:00 DS 7.50000 176.000 main 2453 2416 O_____________ jtwc_wp WP332018 7.50000 176.000 WV 20 1002 -3 1005 135 40 11 284
2018311N07179 2018 105 WP MM USAGI 2018-11-08 15:00:00 DS 7.60016 175.392 main 2416 2380 P_____________ WP332018 7.60016 175.392 WV 20 1001 -3 1005 135 40 12 280
2018311N07179 2018 105 WP MM USAGI 2018-11-08 18:00:00 DS 7.70000 174.800 main 2380 2367 O_____________ jtwc_wp WP332018 7.70000 174.800 WV 20 1000 -3 1005 135 40 10 284
2018311N07179 2018 105 WP MM USAGI 2018-11-08 21:00:00 DS 7.84229 174.435 main 2360 2354 P_____________ WP332018 7.84229 174.435 WV 20 1001 -3 1005 140 37 8 293
2018311N07179 2018 105 WP MM USAGI 2018-11-09 00:00:00 DS 8.00000 174.100 main 2356 2337 O_____________ jtwc_wp WP332018 8.00000 174.100 WV 20 1003 -3 1005 145 35 9 292
2018311N07179 2018 105 WP MM USAGI 2018-11-09 03:00:00 DS 8.16498 173.630 main 2339 2315 P_____________ WP332018 8.16498 173.630 WV 17 1003 -3 1004 120 37 10 287
2018311N07179 2018 105 WP MM USAGI 2018-11-09 06:00:00 DS 8.30000 173.100 main 2315 2289 O_____________ jtwc_wp WP332018 8.30000 173.100 WV 15 1003 -3 1003 95 40 11 280
2018311N07179 2018 105 WP MM USAGI 2018-11-09 09:00:00 DS 8.36506 172.527 main 2286 2255 P_____________ WP332018 8.36506 172.527 WV 15 1003 -3 1003 122 40 11 275
2018311N07179 2018 105 WP MM USAGI 2018-11-09 12:00:00 DS 8.40000 172.000 main 2255 2237 O_____________ jtwc_wp WP332018 8.40000 172.000 WV 15 1003 -3 1003 150 40 9 276
2018311N07179 2018 105 WP MM USAGI 2018-11-09 15:00:00 DS 8.45737 171.620 main 2240 2223 P_____________ WP332018 8.45737 171.620 WV 17 1003 -3 1003 137 40 7 278
2018311N07179 2018 105 WP MM USAGI 2018-11-09 18:00:00 DS 8.50000 171.300 main 2223 2205 O_____________ jtwc_wp WP332018 8.50000 171.300 WV 20 1004 -3 1004 125 40 6 274
2018311N07179 2018 105 WP MM USAGI 2018-11-09 21:00:00 DS 8.50740 170.972 main 2205 2183 P_____________ WP332018 8.50740 170.972 WV 20 1004 -3 1004 125 47 7 270
2018311N07179 2018 105 WP MM USAGI 2018-11-10 00:00:00 DS 8.50000 170.600 main 2183 2161 O_____________ jtwc_wp WP332018 8.50000 170.600 WV 20 1004 -3 1004 125 55 8 268
2018311N07179 2018 105 WP MM USAGI 2018-11-10 03:00:00 DS 8.47748 170.130 main 2156 2130 P_____________ WP332018 8.47748 170.130 WV 22 1004 -3 1005 137 45 10 270
2018311N07179 2018 105 WP MM USAGI 2018-11-10 06:00:00 DS 8.50000 169.600 main 2130 2110 O_____________ jtwc_wp WP332018 8.50000 169.600 WV 25 1005 -3 1007 150 35 11 275
2018311N07179 2018 105 WP MM USAGI 2018-11-10 09:00:00 DS 8.57493 169.065 main 2115 2101 P_____________ WP332018 8.57493 169.065 WV 25 1005 -3 1007 150 32 11 285
2018311N07179 2018 105 WP MM USAGI 2018-11-10 12:00:00 DS 8.80000 168.500 main 2107 2103 O_____________ jtwc_wp WP332018 8.80000 168.500 WV 25 1005 -3 1007 150 30 13 301
2018311N07179 2018 105 WP MM USAGI 2018-11-10 15:00:00 DS 9.26237 167.923 main 2133 2133 P_____________ WP332018 9.26237 167.923 WV 25 1004 -3 1006 117 30 16 310
2018311N07179 2018 105 WP MM USAGI 2018-11-10 18:00:00 DS 9.80000 167.300 main 2162 2162 O_____________ jtwc_wp WP332018 9.80000 167.300 WV 25 1003 -3 1005 85 30 16 307
2018311N07179 2018 105 WP MM USAGI 2018-11-10 21:00:00 DS 10.2299 166.622 main 2178 2171 P_____________ WP332018 10.2299 166.622 WV 25 1004 -3 1005 95 30 16 300
2018311N07179 2018 105 WP MM USAGI 2018-11-11 00:00:00 DS 10.6000 165.900 main 2174 2153 O_____________ jtwc_wp WP332018 10.6000 165.900 WV 25 1005 -3 1006 105 30 16 296
2018311N07179 2018 105 WP MM USAGI 2018-11-11 03:00:00 DS 10.9373 165.165 main 2153 2124 P_____________ WP332018 10.9373 165.165 WV 22 1005 -3 1006 105 30 16 292
2018311N07179 2018 105 WP MM USAGI 2018-11-11 06:00:00 DS 11.2000 164.400 main 2124 2088 O_____________ jtwc_wp WP332018 11.2000 164.400 WV 20 1006 -3 1006 105 30 16 286
2018311N07179 2018 105 WP MM USAGI 2018-11-11 09:00:00 DS 11.3951 163.570 main 2088 2044 P_____________ WP332018 11.3951 163.570 WV 20 1006 -3 1006 105 30 16 281
2018311N07179 2018 105 WP MM USAGI 2018-11-11 12:00:00 DS 11.5000 162.800 main 2044 2006 O_____________ jtwc_wp WP332018 11.5000 162.800 WV 20 1006 -3 1006 105 30 13 276
2018311N07179 2018 105 WP MM USAGI 2018-11-11 15:00:00 DS 11.5447 162.205 main 2006 1975 P_____________ WP332018 11.5447 162.205 WV 20 1006 -3 1006 120 30 11 270
2018311N07179 2018 105 WP MM USAGI 2018-11-11 18:00:00 DS 11.5000 161.700 main 1975 1936 O_____________ jtwc_wp WP332018 11.5000 161.700 WV 20 1006 -3 1006 135 30 10 261
2018311N07179 2018 105 WP MM USAGI 2018-11-11 21:00:00 DS 11.3949 161.193 main 1936 1888 P_____________ WP332018 11.3949 161.193 WV 20 1006 -3 1006 142 30 10 253
2018311N07179 2018 105 WP MM USAGI 2018-11-12 00:00:00 DS 11.2000 160.700 main 1888 1831 O_____________ jtwc_wp WP332018 11.2000 160.700 WV 20 1007 -3 1007 150 30 11 243
2018311N07179 2018 105 WP MM USAGI 2018-11-12 03:00:00 DS 10.9148 160.215 main 1831 1774 P_____________ WP332018 10.9148 160.215 WV 17 1006 -3 1006 150 30 12 239
2018311N07179 2018 105 WP MM USAGI 2018-11-12 06:00:00 NR 10.6000 159.700 main 1774 1721 O_____________ jtwc_wp WP332018 10.6000 159.700 DB 15 1005 -3 1005 150 30 12 243
2018311N07179 2018 105 WP MM USAGI 2018-11-12 09:00:00 NR 10.3500 159.100 main 1721 1660 P_____________ WP332018 10.3500 159.100 DB 15 1006 -3 1006 150 30 13 247
2018311N07179 2018 105 WP MM USAGI 2018-11-12 12:00:00 NR 10.1000 158.500 main 1660 1605 O_____________ jtwc_wp WP332018 10.1000 158.500 DB 15 1007 -3 1007 150 30 13 242
2018311N07179 2018 105 WP MM USAGI 2018-11-12 15:00:00 NR 9.74749 157.947 main 1590 1550 P_____________ WP332018 9.74749 157.947 DB 15 1007 -3 1007 150 30 12 239
2018311N07179 2018 105 WP MM USAGI 2018-11-12 18:00:00 NR 9.50000 157.500 main 1550 1540 O_____________ jtwc_wp WP332018 9.50000 157.500 DB 15 1007 -3 1007 150 30 7 255
2018311N07179 2018 105 WP MM USAGI 2018-11-12 21:00:00 NR 9.55479 157.243 main 1545 1535 P_____________ WP332018 9.55479 157.243 DB 15 1007 -3 1007 165 30 6 280
2018311N07179 2018 105 WP MM USAGI 2018-11-13 00:00:00 MX 9.60000 156.940 1006 tokyo main 1530 1501 OO____________ jtwc_wp WP332018 9.70000 157.000 WV 15 1007 -3 1007 180 30 9.20000 156.700 2 1006 0 0 0 8 264
2018311N07179 2018 105 WP MM USAGI 2018-11-13 03:00:00 MX 9.47175 156.465 main 1501 1458 PP____________ WP332018 9.73004 156.580 WV 15 1007 -3 1007 180 30 8.95516 156.235 2 1005 0 0 10 251
2018311N07179 2018 105 WP MM USAGI 2018-11-13 06:00:00 MX 9.27143 155.971 1004 tokyo main 1458 1406 OO____________ jtwc_wp WP332018 9.70000 156.100 WV 15 1007 -3 1007 180 30 8.70000 155.800 2 1004 0 0 0 10 244
2018311N07179 2018 105 WP MM USAGI 2018-11-13 09:00:00 MX 9.02493 155.525 main 1406 1380 PP____________ WP332018 9.61497 155.642 WV 15 1007 -3 1007 180 30 8.43489 155.408 2 1005 0 0 10 244
2018311N07179 2018 105 WP MM USAGI 2018-11-13 12:00:00 MX 8.85000 155.100 1006 tokyo main 1380 1345 OO____________ jtwc_wp WP332018 9.50000 155.200 WV 15 1007 -3 1007 180 30 8.20000 155.000 2 1006 0 0 0 9 250
2018311N07179 2018 105 WP MM USAGI 2018-11-13 15:00:00 MX 8.71371 154.654 main 1345 1318 PP____________ WP332018 9.39243 154.793 WV 15 1007 -3 1007 180 30 8.03499 154.515 2 1005 0 0 9 254
2018311N07179 2018 105 WP MM USAGI 2018-11-13 18:00:00 MX 8.60000 154.200 1004 tokyo main 1318 1295 OO____________ jtwc_wp WP332018 9.30000 154.400 WV 15 1007 -3 1007 180 30 7.90000 154.000 2 1004 0 0 0 9 256
2018311N07179 2018 105 WP MM USAGI 2018-11-13 21:00:00 MX 8.49242 153.758 main 1295 1272 PP____________ WP332018 9.24237 154.023 WV 15 1007 -3 1007 180 30 7.74247 153.493 2 1005 0 0 9 257
2018311N07179 2018 105 WP MM USAGI 2018-11-14 00:00:00 MX 8.40000 153.300 1006 tokyo main 1272 1252 OO____________ jtwc_wp WP332018 9.20000 153.600 WV 15 1007 -3 1007 180 30 7.60000 153.000 2 1006 0 0 0 9 259
2018311N07179 2018 105 WP MM USAGI 2018-11-14 03:00:00 MX 8.30987 152.826 main 1250 1242 PP____________ WP332018 9.15731 153.110 WV 15 1006 -3 1006 180 30 7.46243 152.542 2 1005 0 0 10 261
2018311N07179 2018 105 WP MM USAGI 2018-11-14 06:00:00 MX 8.25000 152.300 1004 tokyo main 1242 1224 OO____________ jtwc_wp WP332018 9.10000 152.500 WV 15 1006 -3 1006 180 30 7.40000 152.100 2 1004 0 0 0 11 266
2018311N07179 2018 105 WP MM USAGI 2018-11-14 09:00:00 MX 8.22755 151.686 main 1224 1221 PP____________ WP332018 9.00764 151.722 WV 15 1007 -3 1007 210 30 7.44746 151.650 2 1005 0 0 12 270
2018311N07179 2018 105 WP MM USAGI 2018-11-14 12:00:00 MX 8.25000 151.050 1006 tokyo main 1232 1215 OO____________ jtwc_wp WP332018 8.90000 150.900 WV 15 1008 -3 1008 240 30 7.60000 151.200 2 1006 0 0 0 12 273
2018311N07179 2018 105 WP MM USAGI 2018-11-14 15:00:00 MX 8.30250 150.438 main 1212 1203 PP____________ WP332018 8.79255 150.125 WV 17 1007 -3 1007 200 30 7.81246 150.750 2 1005 0 0 11 278
2018311N07179 2018 105 WP MM USAGI 2018-11-14 18:00:00 MX 8.40000 149.900 1004 tokyo main 1208 1203 OO____________ jtwc_wp WP332018 8.70000 149.500 WV 20 1006 -3 1006 160 30 8.10000 150.300 2 1004 0 0 0 10 285
2018311N07179 2018 105 WP MM USAGI 2018-11-14 21:00:00 MX 8.56112 149.491 main 1221 1217 PP____________ WP332018 8.64979 149.133 WV 17 1007 -3 1007 175 30 8.47245 149.850 2 1005 0 0 8 292
2018311N07179 2018 105 WP MM USAGI 2018-11-15 00:00:00 MX 8.70000 149.150 1006 tokyo main 1226 1220 OO____________ jtwc_wp WP332018 8.60000 148.900 WV 15 1008 -3 1008 190 30 8.80000 149.400 2 1006 0 0 0 7 284
2018311N07179 2018 105 WP MM USAGI 2018-11-15 03:00:00 MX 8.72994 148.804 main 1220 1216 PP____________ WP332018 8.50744 148.658 WV 15 1008 -3 1008 190 30 8.95244 148.950 2 1005 0 0 7 270
2018311N07179 2018 105 WP MM USAGI 2018-11-15 06:00:00 MX 8.70000 148.450 1004 tokyo main 1216 1212 OO____________ jtwc_wp WP332018 8.40000 148.400 WV 15 1008 -3 1008 190 30 9.00000 148.500 2 1004 0 0 0 7 265
2018311N07179 2018 105 WP MM USAGI 2018-11-15 09:00:00 MX 8.66119 148.069 main 1212 1199 PP____________ WP332018 8.30744 148.088 WV 15 1008 -3 1008 190 30 9.01495 148.050 2 1005 0 0 8 263
2018311N07179 2018 105 WP MM USAGI 2018-11-15 12:00:00 MX 8.60000 147.650 1006 tokyo main 1199 1187 OO____________ jtwc_wp WP332018 8.20000 147.700 WV 15 1008 -3 1008 190 30 9.00000 147.600 2 1006 0 0 0 9 261
2018311N07179 2018 105 WP MM USAGI 2018-11-15 15:00:00 MX 8.52498 147.186 main 1187 1187 PP____________ WP332018 8.05001 147.222 WV 17 1006 -3 1007 235 75 8.99994 147.150 2 1005 0 0 10 261
2018311N07179 2018 105 WP MM USAGI 2018-11-15 18:00:00 TS 8.45000 146.700 1004 tokyo main 1187 1176 OO____________ jtwc_wp WP332018 7.90000 146.700 DB 20 1005 -3 1007 280 120 9.00000 146.700 2 1004 0 0 0 10 262
2018311N07179 2018 105 WP MM USAGI 2018-11-15 21:00:00 TS 8.39991 146.233 main 1177 1177 PP____________ WP332018 7.77744 146.200 DB 20 1005 -3 1007 287 130 9.02239 146.265 2 1005 0 0 9 264
2018311N07179 2018 105 WP MM USAGI 2018-11-16 00:00:00 TS 8.35000 145.750 1006 tokyo main 1179 1169 OO____________ jtwc_wp WP332018 7.70000 145.700 DB 20 1005 -3 1008 295 140 9.00000 145.800 2 1006 0 0 0 10 262
2018311N07179 2018 105 WP MM USAGI 2018-11-16 03:00:00 TS 8.27112 145.255 main 1174 1166 PP____________ WP332018 7.66982 145.230 DB 20 1005 -3 1008 295 140 8.87241 145.280 2 1005 0 0 11 262
2018311N07179 2018 105 WP MM USAGI 2018-11-16 06:00:00 TS 8.20000 144.700 1004 tokyo main 1173 1173 OO____________ jtwc_wp WP332018 7.70000 144.700 DB 20 1005 -3 1008 295 140 8.70000 144.700 2 1004 0 0 0 12 266
2018311N07179 2018 105 WP MM USAGI 2018-11-16 09:00:00 TS 8.18629 144.036 main 1189 1189 PP____________ WP332018 7.80759 144.015 DB 20 1004 -3 1007 307 120 8.56500 144.058 2 1005 0 0 13 268
2018311N07179 2018 105 WP MM USAGI 2018-11-16 12:00:00 TS 8.15000 143.350 1006 tokyo main 1207 1188 OO____________ jtwc_wp WP332018 7.90000 143.300 DB 20 1004 -3 1006 320 100 8.40000 143.400 2 1006 0 0 0 13 263
2018311N07179 2018 105 WP MM USAGI 2018-11-16 15:00:00 TS 8.01863 142.735 main 1184 1153 PP____________ WP332018 7.87991 142.670 DB 20 1003 -3 1006 270 80 8.15734 142.800 2 1005 0 0 12 256
2018311N07179 2018 105 WP MM USAGI 2018-11-16 18:00:00 TS 7.85000 142.150 1004 tokyo main 1153 1108 OO____________ jtwc_wp WP332018 7.80000 142.100 DB 20 1002 -3 1006 220 60 7.90000 142.200 2 1004 0 0 0 12 254
2018311N07179 2018 105 WP MM USAGI 2018-11-16 21:00:00 TS 7.69239 141.575 main 1108 1076 PP____________ WP332018 7.70739 141.585 DB 20 1003 -3 1006 250 55 7.67740 141.565 2 1004 0 0 12 255
2018311N07179 2018 105 WP MM USAGI 2018-11-17 00:00:00 TS 7.55000 141.000 1004 tokyo main 1076 1051 OO____________ jtwc_wp WP332018 7.60000 141.100 DB 20 1004 -3 1006 280 50 7.50000 140.900 2 1004 0 0 0 12 258
2018311N07179 2018 105 WP MM USAGI 2018-11-17 03:00:00 TS 7.44980 140.434 main 1037 1015 PP____________ WP332018 7.50726 140.645 DB 20 1004 -3 1006 235 50 7.39235 140.223 2 1004 0 0 12 260
2018311N07179 2018 105 WP MM USAGI 2018-11-17 06:00:00 TS 7.35000 139.800 1004 tokyo main 1015 964 OO____________ jtwc_wp WP332018 7.40000 140.100 DB 20 1004 -3 1006 190 50 7.30000 139.500 2 1004 0 0 0 14 260
2018311N07179 2018 105 WP MM USAGI 2018-11-17 09:00:00 TS 7.20384 139.011 main 960 920 PP____________ WP332018 7.25756 139.345 DB 22 1004 -3 1006 190 55 7.15011 138.677 2 1004 0 0 16 259
2018311N07179 2018 105 WP MM USAGI 2018-11-17 12:00:00 TS 7.05000 138.200 1004 tokyo main 920 880 OO____________ jtwc_wp WP332018 7.10000 138.500 TD 25 1004 -1 1006 190 60 7.00000 137.900 2 1004 0 0 0 15 259
2018311N07179 2018 105 WP MM USAGI 2018-11-17 15:00:00 TS 6.92476 137.521 main 877 852 PP____________ WP332018 6.95729 137.715 TD 25 1004 -1 1005 167 55 6.89223 137.328 2 1004 0 0 14 260
2018311N07179 2018 105 WP MM USAGI 2018-11-17 18:00:00 TS 6.82222 136.844 1004 tokyo main 850 831 OOO___________ jtwc_wp WP332018 6.80000 136.900 TD 25 1004 -1 1005 145 50 6.80000 136.800 2 1004 0 0 0 7.00000 136.800 1 25 1004 15 261
2018311N07179 2018 105 WP MM USAGI 2018-11-17 21:00:00 TS 6.68715 136.069 main 831 818 PPP___________ WP332018 6.59277 135.932 TD 25 1005 -1 1006 160 52 6.70003 136.150 2 1004 0 0 6.85018 136.182 1 25 1004 15 260
2018311N07179 2018 105 WP MM USAGI 2018-11-18 00:00:00 TS 6.55455 135.382 1004 tokyo main 818 790 OOO___________ jtwc_wp WP332018 6.40000 135.100 TD 25 1006 -1 1007 175 55 6.60000 135.500 2 1004 0 0 0 6.70000 135.600 1 25 1004 12 257
2018311N07179 2018 105 WP MM USAGI 2018-11-18 03:00:00 TS 6.41904 134.883 main 790 777 PPP___________ WP332018 6.23224 134.660 TD 27 1004 -1 1006 177 50 6.46245 134.912 2 1003 0 0 6.56242 135.077 1 25 1004 9 258
2018311N07179 2018 105 WP MM USAGI 2018-11-18 06:00:00 TS 6.36667 134.467 1002 tokyo main 777 741 OOO___________ jtwc_wp WP332018 6.20000 134.400 TD 30 1003 -1 1006 180 45 6.40000 134.400 2 1002 0 0 0 6.50000 134.600 1 25 1004 8 274
2018311N07179 2018 105 WP MM USAGI 2018-11-18 09:00:00 TS 6.48080 134.061 main 748 727 PPP___________ WP332018 6.38997 134.093 TD 30 1003 -1 1006 180 45 6.50494 133.963 2 1003 0 0 6.54748 134.128 1 25 1004 8 294
2018311N07179 2018 105 WP MM USAGI 2018-11-18 12:00:00 TS 6.70000 133.700 1004 tokyo main 727 717 OOO___________ jtwc_wp WP332018 6.70000 133.800 TD 30 1003 -1 1007 180 45 6.70000 133.600 2 1004 0 0 0 6.70000 133.700 1 25 1004 8 303
2018311N07179 2018 105 WP MM USAGI 2018-11-18 15:00:00 TS 6.91994 133.383 main 717 709 PPP___________ WP332018 6.98497 133.507 TD 30 1003 -1 1007 200 45 6.86240 133.307 2 1003 0 0 6.91244 133.335 1 25 1004 8 308
2018311N07179 2018 105 WP MM USAGI 2018-11-18 18:00:00 TS 7.20000 133.067 1002 tokyo main 717 673 OOO___________ jtwc_wp WP332018 7.30000 133.200 TD 30 1004 -1 1007 220 45 7.10000 133.000 2 1002 0 0 0 7.20000 133.000 1 25 1004 9 314
2018311N07179 2018 105 WP MM USAGI 2018-11-18 21:00:00 TS 7.54658 132.721 main 673 628 PPP___________ WP332018 7.64232 132.910 TD 30 1004 -1 1007 202 57 7.47002 132.573 2 1003 0 0 7.52739 132.680 1 25 1004 11 314
2018311N07179 2018 105 WP MM USAGI 2018-11-19 00:00:00 TS 7.93333 132.300 1004 tokyo main 628 577 OOO___________ jtwc_wp WP332018 8.00000 132.500 TD 30 1004 -1 1008 185 70 7.90000 132.100 2 1004 0 0 0 7.90000 132.300 1 25 1004 12 309
2018311N07179 2018 105 WP MM USAGI 2018-11-19 03:00:00 TS 8.32923 131.753 main 577 518 PPP___________ WP332018 8.35768 131.838 TD 30 1003 -1 1007 185 62 8.32247 131.643 2 1003 0 0 8.30753 131.780 1 25 1004 14 304
2018311N07179 2018 105 WP MM USAGI 2018-11-19 06:00:00 TS 8.70000 131.167 1002 tokyo main 518 471 OOO___________ jtwc_wp WP332018 8.70000 131.100 TD 30 1003 -1 1007 185 55 8.70000 131.200 2 1002 0 0 0 8.70000 131.200 1 25 1004 13 301
2018311N07179 2018 105 WP MM USAGI 2018-11-19 09:00:00 TS 9.00327 130.632 main 463 429 PPP___________ WP332018 9.01489 130.470 TD 30 1003 -1 1007 185 55 8.96490 130.800 2 1003 0 0 9.03000 130.627 1 25 1004 12 299
2018311N07179 2018 105 WP MM USAGI 2018-11-19 12:00:00 TS 9.26667 130.133 1004 tokyo main 421 381 OOO___________ jtwc_wp WP332018 9.30000 129.900 TD 30 1004 -1 1007 185 55 9.20000 130.400 2 1004 0 0 0 9.30000 130.100 1 25 1004 11 299
2018311N07179 2018 105 WP MM USAGI 2018-11-19 15:00:00 TS 9.53410 129.663 main 381 344 PPP___________ WP332018 9.56489 129.377 TD 30 1004 -1 1007 185 55 9.51502 129.943 2 1003 0 0 9.52239 129.670 1 27 1003 10 299
2018311N07179 2018 105 WP MM USAGI 2018-11-19 18:00:00 TS 9.76667 129.233 1002 tokyo main 336 306 OOO___________ jtwc_wp WP332018 9.80000 128.900 TD 30 1004 -1 1007 185 55 9.80000 129.500 2 1002 0 0 0 9.70000 129.300 1 29 1002 9 297
2018311N07179 2018 105 WP MM USAGI 2018-11-19 21:00:00 TS 9.94070 128.855 main 306 271 PPP___________ WP332018 10.0074 128.442 TD 30 1004 -1 1008 180 55 9.95730 129.165 2 1003 0 0 9.85739 128.957 1 29 1002 8 298
2018311N07179 2018 105 WP MM USAGI 2018-11-20 00:00:00 TS 10.1538 128.485 1004 tokyo main 276 232 OOOO__________ jtwc_wp WP332018 10.2000 128.000 TD 30 1005 -1 1009 175 55 10.1000 128.800 2 1004 0 0 0 10.0000 128.600 1 29 1002 10.8000 128.700 TD 25 1002 9 295
2018311N07179 2018 105 WP MM USAGI 2018-11-20 03:00:00 TS 10.3365 127.983 main 232 194 PPPP__________ WP332018 10.4000 127.542 TD 30 1003 -1 1007 152 55 10.3426 128.265 2 1003 0 0 10.1350 128.172 1 29 1002 10.6006 127.922 TD 25 1002 11 289
2018311N07179 2018 105 WP MM USAGI 2018-11-20 06:00:00 TS 10.5000 127.460 1002 tokyo main 194 145 OOOO__________ jtwc_wp WP332018 10.6000 127.100 TD 30 1002 -1 1006 130 55 10.6000 127.700 2 1002 0 0 0 10.3000 127.700 1 29 1002 10.5000 127.300 TD 25 1002 10 290
2018311N07179 2018 105 WP MM USAGI 2018-11-20 09:00:00 TS 10.6741 127.042 main 135 88 PPPP__________ WP332018 10.7998 126.715 TD 27 1004 -1 1007 145 55 10.8072 127.272 2 1003 0 0 10.5271 127.260 1 29 1002 10.5621 126.920 TD 25 1002 9 294
2018311N07179 2018 105 WP MM USAGI 2018-11-20 12:00:00 TS 10.8750 126.600 1004 tokyo main 88 34 OOOO__________ jtwc_wp WP332018 11.0000 126.300 TD 25 1006 -1 1008 160 55 11.0000 126.800 2 1004 0 0 0 10.8000 126.700 1 29 1002 10.7000 126.600 TD 25 1002 11 295
2018311N07179 2018 105 WP MM USAGI 2018-11-20 15:00:00 TS 11.1267 126.040 main 24 0 PPPP__________ WP332018 11.2297 125.825 TD 22 1007 -1 1008 155 47 11.2598 126.175 2 1004 0 0 11.1977 125.896 1 27 1003 10.8198 126.264 TD 25 1002 13 287
2018311N07179 2018 105 WP MM USAGI 2018-11-20 18:00:00 TS 11.2750 125.300 1004 tokyo main 0 0 OOOO__________ jtwc_wp WP332018 11.4000 125.200 DB 20 1008 -3 1008 150 40 11.4000 125.400 2 1004 0 0 0 11.4000 125.000 1 25 1004 10.9000 125.600 TD 25 1002 17 271
2018311N07179 2018 105 WP MM USAGI 2018-11-20 21:00:00 TS 11.1682 124.350 main 0 0 PPPO__________ WP332018 11.4529 124.322 DB 20 1008 -3 1008 150 40 11.2525 124.487 2 1005 0 0 11.0672 124.192 1 25 1004 10.9000 124.400 TD 25 1002 18 261
2018311N07179 2018 105 WP MM USAGI 2018-11-21 00:00:00 TS 10.9750 123.450 1006 tokyo main 11 0 OOOO__________ jtwc_wp WP332018 11.4000 123.400 DB 20 1009 -3 1009 150 40 11.0000 123.500 2 1006 0 0 0 10.6000 123.400 1 25 1004 10.9000 123.500 TD 25 1002 17 258
2018311N07179 2018 105 WP MM USAGI 2018-11-21 03:00:00 TS 10.8280 122.665 main 0 0 PPPO__________ WP332018 11.2797 122.662 DB 20 1008 -3 1008 162 40 10.8350 122.520 2 1005 0 0 10.3975 122.578 1 25 1004 10.8000 122.900 TD 25 1002 17 259
2018311N07179 2018 105 WP MM USAGI 2018-11-21 06:00:00 TS 10.6500 121.800 1004 tokyo main 15 21 OOOO__________ jtwc_wp WP332018 11.1000 122.000 DB 20 1007 -3 1007 175 40 10.7000 121.600 2 1004 0 0 0 10.3000 121.800 1 25 1004 10.5000 121.800 TD 25 1002 16 259
2018311N07179 2018 105 WP MM USAGI 2018-11-21 09:00:00 TS 10.5303 121.093 main 88 76 PPPO__________ WP332018 10.8545 121.387 DB 22 1007 -3 1008 192 40 10.5545 120.835 2 1005 0 0 10.2121 121.150 1 25 1004 10.5000 121.000 TD 25 1002 14 263
2018311N07179 2018 105 WP MM USAGI 2018-11-21 12:00:00 TS 10.4750 120.400 1006 tokyo main 76 0 OOOO__________ jtwc_wp WP332018 10.7000 120.700 TD 25 1008 -1 1009 210 40 10.5000 120.100 2 1006 0 0 0 10.2000 120.500 1 25 1004 10.5000 120.300 TD 25 1002 14 271
2018311N07179 2018 105 WP MM USAGI 2018-11-21 15:00:00 TS 10.5432 119.683 main 0 0 PPPO__________ WP332018 10.8053 119.765 TD 27 1007 -1 1009 200 40 10.5976 119.243 2 1006 0 0 10.2700 119.723 1 27 1003 10.5000 120.000 TD 25 1002 15 279
2018311N07179 2018 105 WP MM USAGI 2018-11-21 18:00:00 TS 10.7000 118.875 1006 tokyo main 40 40 OOOO__________ jtwc_wp WP332018 11.0000 118.800 TD 30 1006 -1 1009 190 40 10.8000 118.400 2 1006 0 0 0 10.4000 118.900 1 29 1002 10.6000 119.400 TD 25 1002 16 281
2018311N07179 2018 105 WP MM USAGI 2018-11-21 21:00:00 TS 10.8460 118.074 main 109 109 PPPO__________ WP332018 11.1145 118.027 TD 32 1005 -1 1009 190 40 11.0497 117.678 2 1005 0 0 10.5199 118.092 1 31 1001 10.7000 118.500 TD 25 1002 16 281
2018311N07179 2018 105 WP MM USAGI 2018-11-22 00:00:00 TS 11.0000 117.275 35 1004 tokyo main 192 192 OOOO__________ jtwc_wp WP332018 11.2000 117.300 TS 35 1004 0 60 30 60 80 1009 190 40 11.3000 117.000 3 35 1004 0 7 120 30 0 10.7000 117.300 2 34 1000 10.8000 117.500 TD 30 1000 16 285
2018311N07179 2018 105 WP MM USAGI 2018-11-22 03:00:00 TS 11.2568 116.528 main 274 274 PPPO__________ WP332018 11.2800 116.493 TS 37 1003 0 60 30 60 80 1008 185 40 11.5174 116.293 3 35 1004 0 7 120 30 11.0299 116.528 2 34 1000 11.2000 116.800 TD 30 1000 16 285
2018311N07179 2018 105 WP MM USAGI 2018-11-22 06:00:00 TS 11.4000 115.750 35 1004 tokyo main 329 329 OOOO__________ jtwc_wp WP332018 11.3000 115.700 TS 40 1003 0 60 30 60 80 1008 180 40 11.6000 115.600 3 35 1004 0 7 120 30 0 11.3000 115.800 2 34 1000 11.4000 115.900 TD 30 1000 14 274
2018311N07179 2018 105 WP MM USAGI 2018-11-22 09:00:00 TS 11.3519 115.062 main 383 383 PPPO__________ WP332018 11.2375 114.932 TS 40 1003 0 60 30 60 80 1008 180 35 11.4450 114.905 3 35 1004 0 7 120 30 11.3249 115.112 2 34 1000 11.4000 115.300 TD 30 1000 13 261
2018311N07179 2018 105 WP MM USAGI 2018-11-22 12:00:00 TS 11.2000 114.400 35 1004 tokyo main 426 426 OOOO__________ jtwc_wp WP332018 11.1000 114.300 TS 40 1003 0 60 30 60 80 1008 180 30 11.2000 114.300 3 35 1004 0 7 120 30 0 11.2000 114.500 2 34 1000 11.3000 114.500 TD 30 1000 12 253
2018311N07179 2018 105 WP MM USAGI 2018-11-22 15:00:00 TS 11.0067 113.913 main 459 459 PPPO__________ WP332018 10.8847 113.912 TS 42 1002 0 60 30 60 80 1009 212 30 11.0347 113.870 3 35 1004 0 7 120 45 11.0073 113.970 2 36 997 11.1000 113.900 TD 30 1000 10 246
2018311N07179 2018 105 WP MM USAGI 2018-11-22 18:00:00 TS 10.8000 113.500 35 1004 tokyo main 474 435 OOOO__________ jtwc_wp WP332018 10.7000 113.600 TS 45 1002 0 60 30 60 80 1010 245 30 10.9000 113.500 3 35 1004 0 7 120 60 0 10.8000 113.500 2 38 995 10.8000 113.400 TD 30 1000 9 250
2018311N07179 2018 105 WP MM USAGI 2018-11-22 21:00:00 TS 10.7099 113.097 main 435 394 PPPO__________ WP332018 10.6850 113.173 TS 47 1000 0 60 35 65 85 1010 207 30 10.7849 113.065 3 40 1002 0 7 135 75 10.6699 113.050 2 41 993 10.7000 113.100 TD 30 1000 8 261
2018311N07179 2018 105 WP MM USAGI 2018-11-23 00:00:00 TS 10.6750 112.650 45 1000 tokyo main 394 338 OOOO__________ jtwc_wp WP332018 10.7000 112.700 TS 50 999 0 60 40 70 90 23 29 42 1010 170 30 10.7000 112.600 3 45 1000 0 7 150 90 0 10.6000 112.600 2 44 992 10.7000 112.700 TS 35 996 10 266
2018311N07179 2018 105 WP MM USAGI 2018-11-23 03:00:00 TS 10.6450 112.119 main 338 289 PPPO__________ WP332018 10.6225 112.192 TS 55 995 0 65 50 70 90 26 29 42 1009 167 27 10.6651 112.085 3 47 998 0 7 165 90 10.5925 112.100 2 46 991 10.7000 112.100 TS 40 992 11 266
2018311N07179 2018 105 WP MM USAGI 2018-11-23 06:00:00 TS 10.6000 111.575 50 996 tokyo main 289 256 OOOO__________ jtwc_wp WP332018 10.5000 111.700 TS 60 992 0 70 60 70 90 30 24 30 43 1009 165 25 10.6000 111.600 4 50 996 0 7 180 90 0 10.6000 111.600 3 48 990 10.7000 111.400 TS 40 992 9 262
2018311N07179 2018 105 WP MM USAGI 2018-11-23 09:00:00 TS 10.5149 111.183 main 256 226 PPPO__________ WP332018 10.3574 111.278 TS 62 990 0 75 65 80 90 33 27 36 43 1009 165 25 10.4299 111.235 4 50 996 0 7 180 90 10.5725 111.120 3 48 990 10.7000 111.100 TS 40 992 8 252
2018311N07179 2018 105 WP MM USAGI 2018-11-23 12:00:00 TS 10.3500 110.800 50 996 tokyo main 226 212 OOOO__________ jtwc_wp WP332018 10.2000 110.900 TY 65 989 1 80 70 90 90 37 30 43 43 18 15 22 22 1009 165 25 10.2000 110.900 4 50 996 0 7 180 90 0 10.5000 110.700 3 48 990 10.5000 110.700 TS 45 988 8 246
2018311N07179 2018 105 WP MM USAGI 2018-11-23 15:00:00 TS 10.2087 110.478 main 212 195 PPPO__________ WP332018 10.0499 110.543 TY 72 984 1 75 75 90 90 34 33 43 43 16 17 22 22 1009 167 25 9.92003 110.492 4 50 996 0 7 180 105 10.3649 110.378 3 51 989 10.5000 110.500 TS 45 988 7 243
2018311N07179 2018 105 WP MM USAGI 2018-11-23 18:00:00 TS 10.0250 110.150 50 996 tokyo main 204 188 OOOO__________ jtwc_wp WP332018 9.90000 110.200 TY 80 979 1 70 80 90 90 31 37 44 44 15 19 22 22 1009 170 25 9.70000 110.100 4 50 996 0 8 180 120 0 10.2000 110.100 3 54 988 10.3000 110.200 TS 45 988 7 243
2018311N07179 2018 105 WP MM USAGI 2018-11-23 21:00:00 TS 9.88120 109.816 main 188 179 PPPO__________ WP332018 9.72747 109.850 TY 85 975 2 75 80 90 95 34 37 44 47 17 19 22 24 1009 180 25 9.66239 109.800 4 55 993 0 8 180 120 10.0349 109.815 3 59 984 10.1000 109.800 TS 45 988 7 248
2018311N07179 2018 105 WP MM USAGI 2018-11-24 00:00:00 TS 9.77500 109.525 60 990 tokyo main 179 160 OOOO__________ jtwc_wp WP332018 9.60000 109.500 TY 90 971 2 80 80 90 100 38 38 44 50 19 19 23 26 1010 190 25 9.70000 109.500 4 60 990 9 40 40 8 180 120 0 9.90000 109.500 4 64 980 9.90000 109.600 STS 50 984 85 8 258
2018311N07179 2018 105 WP MM USAGI 2018-11-24 03:00:00 TS 9.72254 109.053 main 160 135 PPPO__________ WP332018 9.56251 109.135 TY 87 973 2 80 80 90 105 38 38 44 53 19 19 23 28 1010 190 22 9.70009 109.085 4 60 990 9 40 40 8 180 120 9.82757 109.093 4 64 980 9.80000 108.900 STS 50 984 8 266
2018311N07179 2018 105 WP MM USAGI 2018-11-24 06:00:00 TS 9.72500 108.725 60 990 tokyo main 135 124 OOOO__________ jtwc_wp WP332018 9.60000 108.800 TY 85 975 2 80 80 90 110 38 38 44 57 19 19 23 30 1010 190 20 9.70000 108.700 4 60 990 9 40 40 8 180 120 0 9.80000 108.700 4 64 980 9.80000 108.700 STS 50 984 6 272
2018311N07179 2018 105 WP MM USAGI 2018-11-24 09:00:00 TS 9.74432 108.483 main 124 106 PPPO__________ WP332018 9.69247 108.520 TY 80 978 1 80 80 90 105 37 37 43 53 19 19 22 28 1010 175 20 9.69989 108.485 4 57 991 9 35 35 8 180 120 9.78492 108.428 4 64 980 9.80000 108.500 STS 50 984 5 280
2018311N07179 2018 105 WP MM USAGI 2018-11-24 12:00:00 TS 9.80000 108.275 55 992 tokyo main 106 99 OOOO__________ jtwc_wp WP332018 9.80000 108.300 TY 75 982 1 80 80 90 100 37 37 43 50 19 19 22 26 1010 160 20 9.70000 108.300 4 55 992 9 30 30 8 180 120 0 9.80000 108.200 4 64 980 9.90000 108.300 STS 50 984 5 279
2018311N07179 2018 105 WP MM USAGI 2018-11-24 15:00:00 TS 9.82126 108.016 main 99 86 PPPO__________ WP332018 9.85748 108.127 TY 70 985 1 90 80 90 100 43 37 43 49 22 18 22 25 1010 170 17 9.68506 107.992 4 55 992 9 30 30 8 180 120 9.84250 107.943 4 64 980 9.90000 108.000 STS 50 984 4 273
2018311N07179 2018 105 WP MM USAGI 2018-11-24 18:00:00 TS 9.82500 107.825 55 992 tokyo main 86 64 OOOO__________ jtwc_wp WP332018 9.90000 108.000 TY 65 989 1 100 80 90 100 49 37 43 49 25 18 22 25 1010 180 15 9.70000 107.700 4 55 992 9 30 30 8 180 120 0 9.90000 107.700 4 64 980 9.80000 107.900 STS 50 984 4 280
2018311N07179 2018 105 WP MM USAGI 2018-11-24 21:00:00 TS 9.89060 107.628 main 64 49 PPPO__________ WP332018 9.94249 107.892 TY 60 992 0 80 60 75 80 36 33 36 1010 175 17 9.78494 107.535 4 50 995 9 8 180 120 9.93499 107.485 4 61 982 9.90000 107.600 STS 50 984 4 299
2018311N07179 2018 105 WP MM USAGI 2018-11-25 00:00:00 TS 10.0000 107.500 45 998 tokyo main 49 35 OOOO__________ jtwc_wp WP332018 10.0000 107.800 TS 55 996 0 60 40 60 60 23 23 23 1011 170 20 9.90000 107.400 3 45 998 0 8 180 120 0 10.0000 107.300 3 58 985 10.1000 107.500 TS 45 988 3 307
2018311N07179 2018 105 WP MM USAGI 2018-11-25 03:00:00 TS 10.0956 107.357 main 35 15 PPPO__________ WP332018 10.0850 107.715 TS 50 997 0 60 40 50 60 11 11 11 1010 160 25 9.97004 107.178 3 42 999 0 8 150 120 10.1275 107.135 3 53 987 10.2000 107.400 TS 45 988 4 307
2018311N07179 2018 105 WP MM USAGI 2018-11-25 06:00:00 TS 10.2250 107.200 40 1000 tokyo main 15 0 OOOO__________ jtwc_wp WP332018 10.2000 107.600 TS 45 999 0 60 40 40 60 1009 150 30 10.1000 107.000 3 40 1000 0 9 120 120 0 10.3000 107.000 3 48 990 10.3000 107.200 TS 40 990 4 318
2018311N07179 2018 105 WP MM USAGI 2018-11-25 09:00:00 TS 10.4050 107.077 main 10 0 PPPO__________ WP332018 10.3500 107.408 TS 40 1000 0 60 35 40 60 1009 140 30 10.3700 107.000 3 37 1001 0 9 105 105 10.5000 106.900 3 41 995 10.4000 107.000 TS 40 990 5 329
2018311N07179 2018 105 WP MM USAGI 2018-11-25 12:00:00 TS 10.6267 106.960 35 1002 tokyo main 0 0 OOOO__________ jtwc_wp WP332018 10.5000 107.200 TS 35 1001 0 60 30 40 60 1009 130 30 10.7000 107.000 3 35 1002 0 9 90 90 0 10.7000 106.800 2 34 1000 10.6000 106.800 TS 35 996 5 332
2018311N07179 2018 105 WP MM USAGI 2018-11-25 15:00:00 TS 10.8128 106.852 main 0 0 PPPO__________ WP332018 10.6000 107.057 TS 32 1004 -1 1010 107 30 11.0375 106.853 3 35 1003 0 9 90 90 10.8575 106.672 2 31 1001 10.7000 106.800 TD 30 1000 5 322
2018311N07179 2018 105 WP MM USAGI 2018-11-25 18:00:00 TS 10.9846 106.677 35 1004 tokyo main 0 0 OOOO__________ jtwc_wp WP332018 10.7000 106.900 TD 30 1007 -1 1012 85 30 11.3000 106.600 3 35 1004 0 9 90 90 0 11.0000 106.500 1 29 1002 10.8000 106.800 TD 30 1000 5 306
2018311N07179 2018 105 WP MM USAGI 2018-11-25 21:00:00 TS 11.1317 106.398 main 0 0 PPP___________ WP332018 10.8425 106.673 TD 27 1008 -1 30 11.3876 106.257 3 1006 0 9 11.1650 106.265 1 27 1005 6 294
2018311N07179 2018 105 WP MM USAGI 2018-11-26 00:00:00 TS 11.2333 106.100 1008 tokyo main 0 0 OOO___________ jtwc_wp WP332018 11.0000 106.400 TD 25 1009 -1 30 11.4000 105.900 2 1008 0 0 0 11.3000 106.000 1 25 1008 6 289
2018311N07179 2018 105 WP MM USAGI 2018-11-26 03:00:00 TS 11.3191 105.828 main 0 0 PPP___________ WP332018 11.1575 106.100 TD 25 1006 -1 30 11.4424 105.635 2 1008 0 0 11.3575 105.750 1 25 1008 6 288
2018311N07179 2018 105 WP MM USAGI 2018-11-26 06:00:00 TS 11.4100 105.550 1008 tokyo main 0 0 OOO___________ jtwc_wp WP332018 11.3000 105.800 TD 25 1004 -1 30 11.5000 105.400 2 1008 0 0 0 11.4000 105.500 1 25 1008 6 290
2018311N07179 2018 105 WP MM USAGI 2018-11-26 09:00:00 TS 11.5162 105.287 main 0 0 PPP___________ WP332018 11.4100 105.538 TD 22 1005 -1 30 11.5849 105.180 2 1009 0 0 11.4850 105.250 1 25 1008 6 293
2018311N07179 2018 105 WP MM USAGI 2018-11-26 12:00:00 TS 11.6400 105.000 1010 tokyo main 0 0 OOO___________ jtwc_wp WP332018 11.5000 105.300 DB 20 1007 -3 30 11.7000 104.900 2 1010 0 0 0 11.6000 105.000 1 25 1008 8 293
2018311N07179 2018 105 WP MM USAGI 2018-11-26 15:00:00 TS 11.8428 104.490 main 0 0 _P____________ WP332018 DB -3 11.8428 104.490 2 1010 0 0 1 10 290
2018311N07179 2018 105 WP MM USAGI 2018-11-26 18:00:00 TS 12.0000 104.000 1010 tokyo main 0 _O____________ 12.0000 104.000 2 1010 0 0 0 10 288

Digital Typhoon Data and Search

About IBTrACS Database

This database is a web-friendly format of International Best Track Archive for Climate Stewardship (IBTrACS), a global best track data archive curated by NOAA dating back to 1842.

Updated: 2021-12-06